Time;durP1;ratioP1;P1;durP2;ratioP2;P2;SDS_P1;SDS_P2;PMS_P1;PMS_P2;Temp;Humidity;BMP_temperature;BMP_pressure;BME280_temperature;BME280_humidity;BME280_pressure;Samples;Min_cycle;Max_cycle;Signal;HPM_P1;HPM_P2
2021/07/25 00:07:17;;;;;;;13.00;11.57;;;;;;;;;;10395023;28;20391;-85
2021/07/25 00:12:18;;;;;;;17.33;13.73;;;;;;;;;;10385095;28;20479;-85
2021/07/25 00:17:20;;;;;;;16.20;13.65;;;;;;;;;;10365311;28;20036;-86
2021/07/25 00:22:21;;;;;;;12.65;11.35;;;;;;;;;;10362284;28;20029;-86
2021/07/25 00:27:28;;;;;;;14.77;13.25;;;;;;;;;;10394328;28;20030;-85
2021/07/25 00:32:29;;;;;;;14.70;12.20;;;;;;;;;;10352725;28;20076;-85
2021/07/25 00:37:31;;;;;;;14.15;12.68;;;;;;;;;;10368009;28;20037;-85
2021/07/25 00:42:39;;;;;;;16.77;14.57;;;;;;;;;;10347095;28;20038;-86
2021/07/25 00:47:40;;;;;;;11.80;10.57;;;;;;;;;;10378398;28;20464;-86
2021/07/25 00:52:43;;;;;;;14.70;13.13;;;;;;;;;;10372812;28;20109;-86
2021/07/25 00:57:45;;;;;;;13.13;11.77;;;;;;;;;;10345616;28;20072;-86
2021/07/25 01:02:51;;;;;;;12.18;10.95;;;;;;;;;;10379581;28;20030;-86
2021/07/25 01:07:59;;;;;;;14.32;12.73;;;;;;;;;;10412749;28;20018;-86
2021/07/25 01:13:08;;;;;;;14.00;12.60;;;;;;;;;;10389424;28;20431;-86
2021/07/25 01:18:10;;;;;;;14.40;12.90;;;;;;;;;;10380791;28;20071;-86
2021/07/25 01:23:11;;;;;;;17.50;14.85;;;;;;;;;;10349707;28;20038;-85
2021/07/25 01:28:27;;;;;;;12.13;10.77;;;;;;;;;;10366883;28;20029;-85
2021/07/25 01:33:34;;;;;;;14.48;12.98;;;;;;;;;;10372025;28;20030;-86
2021/07/25 01:38:39;;;;;;;11.98;10.75;;;;;;;;;;10404154;28;20038;-85
2021/07/25 01:43:42;;;;;;;15.60;12.77;;;;;;;;;;10398512;28;20037;-85
2021/07/25 01:48:44;;;;;;;13.80;12.40;;;;;;;;;;10399597;28;20097;-86
2021/07/25 01:53:55;;;;;;;10.38;9.27;;;;;;;;;;10372387;28;20387;-86
2021/07/25 01:59:03;;;;;;;11.18;9.77;;;;;;;;;;10361621;28;20472;-86
2021/07/25 02:04:07;;;;;;;12.98;10.18;;;;;;;;;;10379384;28;20026;-86
2021/07/25 02:09:12;;;;;;;12.60;11.07;;;;;;;;;;10378431;28;20033;-86
2021/07/25 02:14:14;;;;;;;13.27;11.90;;;;;;;;;;10382108;28;20029;-86
2021/07/25 02:19:15;;;;;;;12.30;11.00;;;;;;;;;;10348484;28;20050;-85
2021/07/25 02:24:19;;;;;;;16.67;13.13;;;;;;;;;;10345994;28;20056;-85
2021/07/25 02:29:21;;;;;;;14.20;12.77;;;;;;;;;;10378130;28;20060;-86
2021/07/25 02:34:22;;;;;;;14.10;11.95;;;;;;;;;;10381093;28;20037;-86
2021/07/25 02:39:23;;;;;;;13.15;11.23;;;;;;;;;;10378625;28;20503;-86
2021/07/25 02:44:24;;;;;;;13.68;11.30;;;;;;;;;;10380202;28;20026;-85
2021/07/25 02:49:25;;;;;;;11.27;10.10;;;;;;;;;;10380696;28;20018;-85
2021/07/25 02:54:26;;;;;;;12.52;10.15;;;;;;;;;;10384093;28;20026;-87
2021/07/25 02:59:28;;;;;;;14.02;11.45;;;;;;;;;;10384282;28;20037;-86
2021/07/25 03:04:29;;;;;;;14.95;11.73;;;;;;;;;;10384060;28;20021;-86
2021/07/25 03:09:30;;;;;;;11.52;10.32;;;;;;;;;;10376519;28;20018;-86
2021/07/25 03:14:31;;;;;;;13.07;11.55;;;;;;;;;;10390291;28;20061;-86
2021/07/25 03:19:32;;;;;;;10.57;8.45;;;;;;;;;;10397003;28;20073;-86
2021/07/25 03:24:34;;;;;;;14.20;12.38;;;;;;;;;;10381733;28;20030;-86
2021/07/25 03:29:35;;;;;;;9.48;8.48;;;;;;;;;;10374994;28;20028;-85
2021/07/25 03:34:35;;;;;;;14.27;10.90;;;;;;;;;;10369554;28;20491;-85
2021/07/25 03:39:36;;;;;;;12.50;11.15;;;;;;;;;;10369519;28;20026;-85
2021/07/25 03:44:38;;;;;;;11.93;10.70;;;;;;;;;;10374877;28;20062;-86
2021/07/25 03:49:39;;;;;;;9.55;8.60;;;;;;;;;;10369062;28;20026;-86
2021/07/25 03:54:43;;;;;;;12.45;9.93;;;;;;;;;;10365959;28;20026;-86
2021/07/25 03:59:44;;;;;;;16.30;12.18;;;;;;;;;;10370078;28;20029;-86
2021/07/25 04:04:45;;;;;;;18.85;16.00;;;;;;;;;;10377587;28;20057;-86
2021/07/25 04:09:46;;;;;;;13.00;11.18;;;;;;;;;;10376844;28;20026;-85
2021/07/25 04:14:47;;;;;;;12.98;11.57;;;;;;;;;;10394414;28;20095;-86
2021/07/25 04:19:48;;;;;;;12.52;10.90;;;;;;;;;;10369297;28;20518;-86
2021/07/25 04:24:53;;;;;;;11.75;10.55;;;;;;;;;;10369481;28;20021;-86
2021/07/25 04:29:55;;;;;;;14.18;11.93;;;;;;;;;;10364995;28;20362;-86
2021/07/25 04:35:00;;;;;;;12.07;10.52;;;;;;;;;;10364958;28;20172;-86
2021/07/25 04:40:04;;;;;;;8.60;7.38;;;;;;;;;;10363234;28;20034;-86
2021/07/25 04:45:09;;;;;;;9.05;8.15;;;;;;;;;;10363579;28;20022;-86
2021/07/25 04:50:19;;;;;;;10.18;9.13;;;;;;;;;;10363021;28;20084;-86
2021/07/25 04:55:33;;;;;;;11.80;9.77;;;;;;;;;;10363201;28;20121;-86
2021/07/25 05:01:03;;;;;;;12.77;10.05;;;;;;;;;;10373586;28;20029;-87
2021/07/25 05:06:10;;;;;;;11.32;10.02;;;;;;;;;;10364017;28;20041;-86
2021/07/25 05:11:30;;;;;;;12.77;10.90;;;;;;;;;;10383799;28;20026;-86
2021/07/25 05:16:42;;;;;;;11.33;9.90;;;;;;;;;;10362651;28;20038;-86
2021/07/25 05:21:48;;;;;;;15.23;12.85;;;;;;;;;;10361121;28;20033;-86
2021/07/25 05:27:02;;;;;;;22.38;17.02;;;;;;;;;;10346575;28;20029;-86
2021/07/25 05:32:03;;;;;;;25.92;19.27;;;;;;;;;;10382240;28;20060;-86
2021/07/25 05:37:04;;;;;;;13.00;10.95;;;;;;;;;;10380871;28;20030;-85
2021/07/25 05:42:05;;;;;;;21.65;18.65;;;;;;;;;;10380464;28;20490;-86
2021/07/25 05:47:06;;;;;;;21.70;17.13;;;;;;;;;;10377908;28;20041;-86
2021/07/25 05:52:07;;;;;;;22.27;18.38;;;;;;;;;;10385409;28;20034;-86
2021/07/25 05:57:10;;;;;;;18.77;15.65;;;;;;;;;;10381041;28;20049;-86
2021/07/25 06:02:11;;;;;;;13.85;10.95;;;;;;;;;;10381824;28;20037;-86
2021/07/25 06:07:12;;;;;;;12.38;9.07;;;;;;;;;;10388455;28;20065;-86
2021/07/25 06:12:16;;;;;;;10.18;8.93;;;;;;;;;;10379131;28;20030;-86
2021/07/25 06:17:16;;;;;;;18.10;14.73;;;;;;;;;;10395476;28;20102;-86
2021/07/25 06:22:17;;;;;;;14.63;11.80;;;;;;;;;;10367433;28;20061;-86
2021/07/25 06:27:18;;;;;;;14.20;10.32;;;;;;;;;;10372626;28;20030;-87
2021/07/25 06:32:19;;;;;;;9.82;8.50;;;;;;;;;;10361517;28;20026;-86
2021/07/25 06:37:20;;;;;;;10.85;9.10;;;;;;;;;;10362356;28;20056;-85
2021/07/25 06:42:21;;;;;;;10.20;9.02;;;;;;;;;;10374830;28;20022;-86
2021/07/25 06:47:22;;;;;;;8.20;7.05;;;;;;;;;;10367335;28;20022;-86
2021/07/25 06:52:23;;;;;;;10.27;8.35;;;;;;;;;;10368254;28;20031;-86
2021/07/25 06:57:24;;;;;;;11.50;9.23;;;;;;;;;;10368870;28;20037;-86
2021/07/25 07:02:25;;;;;;;9.50;8.05;;;;;;;;;;10378824;28;20118;-86
2021/07/25 07:07:26;;;;;;;8.40;6.57;;;;;;;;;;10379883;28;20165;-85
2021/07/25 07:12:27;;;;;;;9.65;6.60;;;;;;;;;;10368277;28;20567;-86
2021/07/25 07:23:25;;;;;;;6.20;5.28;;;;;;;;;;10380080;28;20022;-88
2021/07/25 07:34:35;;;;;;;7.03;5.13;;;;;;;;;;10545643;28;20028;-87
2021/07/25 07:40:08;;;;;;;;;;;;;;;;;;10508636;28;20263;-87
2021/07/25 07:57:04;;;;;;;6.82;4.65;;;;;;;;;;10527288;28;20021;-85
2021/07/25 08:02:24;;;;;;;7.80;5.05;;;;;;;;;;10523507;28;20052;-88
2021/07/25 08:24:48;;;;;;;5.85;4.53;;;;;;;;;;10524641;28;20036;-87
2021/07/25 08:30:09;;;;;;;5.20;4.47;;;;;;;;;;10505125;28;20020;-85
2021/07/25 08:35:25;;;;;;;6.03;4.40;;;;;;;;;;10504503;28;20024;-87
2021/07/25 08:40:52;;;;;;;5.05;4.25;;;;;;;;;;10507276;28;20033;-89
2021/07/25 08:51:55;;;;;;;6.70;4.47;;;;;;;;;;10523633;28;20036;-87
2021/07/25 08:56:59;;;;;;;4.70;3.95;;;;;;;;;;10520729;28;20085;-85
2021/07/25 09:02:00;;;;;;;5.97;4.22;;;;;;;;;;10502770;28;20032;-84
2021/07/25 09:07:03;;;;;;;5.78;4.03;;;;;;;;;;10502526;28;20111;-84
2021/07/25 09:12:04;;;;;;;5.57;4.20;;;;;;;;;;10503170;28;20126;-85
2021/07/25 09:17:05;;;;;;;6.82;4.10;;;;;;;;;;10504187;28;20024;-85
2021/07/25 09:22:14;;;;;;;6.40;4.05;;;;;;;;;;10501176;28;20458;-85
2021/07/25 09:27:17;;;;;;;6.38;3.95;;;;;;;;;;10500874;28;20367;-84
2021/07/25 09:32:19;;;;;;;7.22;4.20;;;;;;;;;;10498160;28;20059;-85
2021/07/25 09:37:21;;;;;;;4.75;3.65;;;;;;;;;;10501914;28;20028;-87
2021/07/25 09:42:29;;;;;;;6.65;3.78;;;;;;;;;;10502507;28;20115;-87
2021/07/25 09:47:35;;;;;;;5.15;3.97;;;;;;;;;;10500454;28;20055;-87
2021/07/25 09:52:37;;;;;;;4.55;3.35;;;;;;;;;;10501252;28;20087;-87
2021/07/25 09:57:38;;;;;;;4.68;3.80;;;;;;;;;;10501835;28;20025;-84
2021/07/25 10:02:43;;;;;;;4.97;3.60;;;;;;;;;;10502101;28;20025;-88
2021/07/25 10:07:45;;;;;;;5.25;3.35;;;;;;;;;;10497812;28;20025;-86
2021/07/25 10:12:47;;;;;;;4.85;3.40;;;;;;;;;;10493454;28;20102;-86
2021/07/25 10:17:48;;;;;;;4.18;3.22;;;;;;;;;;10493147;28;20055;-85
2021/07/25 10:22:50;;;;;;;8.02;3.22;;;;;;;;;;10504815;28;20046;-86
2021/07/25 10:27:56;;;;;;;4.78;3.38;;;;;;;;;;10502751;28;20029;-87
2021/07/25 10:32:58;;;;;;;5.03;3.30;;;;;;;;;;10503160;28;20056;-86
2021/07/25 10:38:02;;;;;;;4.85;3.13;;;;;;;;;;10508694;28;20025;-85
2021/07/25 10:43:03;;;;;;;5.55;3.35;;;;;;;;;;10509142;28;20433;-85
2021/07/25 10:48:14;;;;;;;5.88;3.65;;;;;;;;;;10509757;28;20408;-86
2021/07/25 10:53:22;;;;;;;6.15;3.38;;;;;;;;;;10507791;28;20028;-85
2021/07/25 10:58:24;;;;;;;6.63;3.55;;;;;;;;;;10505049;28;20410;-85
2021/07/25 11:03:25;;;;;;;7.72;3.42;;;;;;;;;;10505192;28;20028;-86
2021/07/25 11:08:36;;;;;;;4.22;3.33;;;;;;;;;;10505373;28;20025;-86
2021/07/25 11:13:41;;;;;;;5.22;3.30;;;;;;;;;;10505798;28;20035;-87
2021/07/25 11:18:42;;;;;;;4.15;3.10;;;;;;;;;;10509437;28;20104;-86
2021/07/25 11:23:43;;;;;;;4.43;3.55;;;;;;;;;;10517938;28;20032;-85
2021/07/25 11:28:44;;;;;;;5.75;3.47;;;;;;;;;;10493882;28;20024;-86
2021/07/25 11:33:46;;;;;;;4.90;3.30;;;;;;;;;;10496248;28;20020;-85
2021/07/25 11:38:51;;;;;;;4.38;3.28;;;;;;;;;;10492677;28;20027;-85
2021/07/25 11:43:58;;;;;;;4.05;3.20;;;;;;;;;;10493599;28;20024;-86
2021/07/25 11:49:20;;;;;;;5.82;3.35;;;;;;;;;;10497151;28;20053;-86
2021/07/25 11:54:25;;;;;;;4.13;3.10;;;;;;;;;;10497848;28;20054;-86
2021/07/25 11:59:26;;;;;;;4.65;3.42;;;;;;;;;;10496533;28;20036;-86
2021/07/25 12:04:31;;;;;;;4.53;3.28;;;;;;;;;;10515489;28;20107;-87
2021/07/25 12:09:33;;;;;;;3.83;2.75;;;;;;;;;;10495969;28;20040;-87
2021/07/25 12:14:35;;;;;;;4.40;3.05;;;;;;;;;;10514325;28;20031;-86
2021/07/25 12:19:37;;;;;;;4.30;2.80;;;;;;;;;;10496835;28;20115;-86
2021/07/25 12:24:39;;;;;;;3.85;2.90;;;;;;;;;;10495209;28;20032;-85
2021/07/25 12:29:42;;;;;;;3.60;3.00;;;;;;;;;;10495478;28;20059;-86
2021/07/25 12:34:43;;;;;;;4.13;3.00;;;;;;;;;;10496061;28;20486;-86
2021/07/25 12:39:44;;;;;;;4.47;3.10;;;;;;;;;;10493947;28;20028;-85
2021/07/25 12:44:48;;;;;;;3.20;2.85;;;;;;;;;;10499189;28;20048;-85
2021/07/25 12:49:58;;;;;;;5.53;3.40;;;;;;;;;;10514239;28;20036;-85
2021/07/25 12:54:59;;;;;;;5.35;3.33;;;;;;;;;;10513828;28;20029;-85
2021/07/25 13:00:00;;;;;;;3.97;3.30;;;;;;;;;;10512933;28;20123;-85
2021/07/25 13:05:01;;;;;;;7.43;4.10;;;;;;;;;;10513653;28;20089;-85
2021/07/25 13:10:02;;;;;;;5.65;3.38;;;;;;;;;;10530811;28;20021;-86
2021/07/25 13:15:03;;;;;;;4.38;3.03;;;;;;;;;;10513361;28;20035;-85
2021/07/25 13:20:05;;;;;;;4.47;3.47;;;;;;;;;;10532374;23;20490;-86
2021/07/25 13:25:28;;;;;;;5.75;3.20;;;;;;;;;;10482990;28;20472;-86
2021/07/25 13:30:34;;;;;;;3.88;2.80;;;;;;;;;;10455242;28;20034;-86
2021/07/25 13:36:27;;;;;;;5.55;2.92;;;;;;;;;;10470237;28;20490;-85
2021/07/25 13:42:24;;;;;;;3.72;2.47;;;;;;;;;;10405981;28;20435;-84
2021/07/25 13:47:36;;;;;;;2.97;2.20;;;;;;;;;;10464485;28;20025;-85
2021/07/25 13:53:13;;;;;;;3.45;2.63;;;;;;;;;;10485798;28;20087;-84
2021/07/25 13:58:14;;;;;;;2.92;2.13;;;;;;;;;;10460226;28;20515;-84
2021/07/25 14:03:17;;;;;;;4.30;2.10;;;;;;;;;;10462452;28;20021;-83
2021/07/25 14:08:31;;;;;;;2.05;1.67;;;;;;;;;;10478592;28;20123;-84
2021/07/25 14:13:36;;;;;;;3.08;1.95;;;;;;;;;;10480481;28;20029;-84
2021/07/25 14:19:00;;;;;;;3.25;1.80;;;;;;;;;;10463342;28;20041;-84
2021/07/25 14:24:35;;;;;;;2.90;2.05;;;;;;;;;;10470855;28;20033;-85
2021/07/25 14:29:47;;;;;;;3.25;1.85;;;;;;;;;;10480031;28;20021;-84
2021/07/25 14:35:15;;;;;;;2.40;1.73;;;;;;;;;;10504757;28;20023;-84
2021/07/25 15:25:48;;;;;;;4.65;2.90;;;;;;;;;;10422152;28;20042;-86
2021/07/25 15:37:07;;;;;;;4.57;2.80;;;;;;;;;;10323112;28;20051;-86
2021/07/25 15:42:40;;;;;;;2.80;2.50;;;;;;;;;;10322816;28;20103;-84
2021/07/25 15:53:20;;;;;;;4.70;3.10;;;;;;;;;;10326119;28;20088;-85
2021/07/25 15:58:22;;;;;;;3.17;2.50;;;;;;;;;;10349570;28;20069;-86
2021/07/25 16:03:23;;;;;;;4.20;3.25;;;;;;;;;;10457279;28;20025;-86
2021/07/25 16:08:24;;;;;;;4.35;3.30;;;;;;;;;;10454682;28;20495;-86
2021/07/25 16:13:27;;;;;;;3.60;2.70;;;;;;;;;;10456340;28;20055;-86
2021/07/25 16:18:34;;;;;;;3.58;2.97;;;;;;;;;;10484199;28;20092;-86
2021/07/25 16:23:47;;;;;;;3.90;2.88;;;;;;;;;;10466581;28;20025;-85
2021/07/25 16:28:49;;;;;;;4.32;3.78;;;;;;;;;;10465730;28;20029;-85
2021/07/25 16:33:55;;;;;;;5.07;4.15;;;;;;;;;;10482763;28;20044;-84
2021/07/25 16:38:59;;;;;;;6.40;3.55;;;;;;;;;;10485366;28;20398;-86
2021/07/25 16:44:06;;;;;;;5.47;3.25;;;;;;;;;;10466803;28;20051;-86
2021/07/25 16:49:32;;;;;;;4.28;2.70;;;;;;;;;;10464640;28;20017;-86
2021/07/25 16:54:56;;;;;;;4.38;3.08;;;;;;;;;;10485483;28;20021;-86
2021/07/25 17:00:03;;;;;;;4.63;3.35;;;;;;;;;;10456378;28;20033;-84
2021/07/25 17:05:04;;;;;;;4.07;2.60;;;;;;;;;;10458365;28;20033;-87
2021/07/25 17:10:09;;;;;;;3.22;2.58;;;;;;;;;;10452944;28;20044;-87
2021/07/25 17:15:11;;;;;;;3.00;2.38;;;;;;;;;;10455105;28;20056;-86
2021/07/25 17:20:13;;;;;;;3.42;2.72;;;;;;;;;;10459170;28;20475;-84
2021/07/25 17:25:23;;;;;;;4.35;2.70;;;;;;;;;;10447629;28;20032;-87
2021/07/25 17:30:26;;;;;;;3.80;2.75;;;;;;;;;;10460430;28;20025;-85
2021/07/25 17:35:51;;;;;;;3.63;2.65;;;;;;;;;;10482788;28;20021;-85
2021/07/25 17:41:07;;;;;;;5.78;3.38;;;;;;;;;;10462734;28;20037;-86
2021/07/25 17:46:08;;;;;;;3.70;2.88;;;;;;;;;;10461335;28;20109;-86
2021/07/25 17:51:09;;;;;;;4.13;3.13;;;;;;;;;;10450524;28;20380;-86
2021/07/25 17:56:11;;;;;;;4.07;3.15;;;;;;;;;;10453690;28;20032;-85
2021/07/25 18:01:13;;;;;;;3.10;2.60;;;;;;;;;;10457911;28;20036;-85
2021/07/25 18:06:20;;;;;;;3.25;2.58;;;;;;;;;;10450017;28;20024;-86
2021/07/25 18:11:42;;;;;;;3.58;2.50;;;;;;;;;;10471262;28;20021;-86
2021/07/25 18:16:44;;;;;;;4.55;2.88;;;;;;;;;;10463117;28;20017;-85
2021/07/25 18:21:49;;;;;;;3.80;2.80;;;;;;;;;;10455795;28;20032;-86
2021/07/25 18:26:55;;;;;;;4.68;3.20;;;;;;;;;;10450393;28;20021;-85
2021/07/25 18:31:56;;;;;;;3.63;2.78;;;;;;;;;;10467604;28;20059;-86
2021/07/25 18:37:02;;;;;;;3.65;2.65;;;;;;;;;;10473888;28;20037;-84
2021/07/25 18:42:08;;;;;;;3.70;3.20;;;;;;;;;;10466725;28;20044;-85
2021/07/25 18:47:11;;;;;;;4.35;2.88;;;;;;;;;;10488454;28;20089;-85
2021/07/25 18:52:12;;;;;;;3.30;2.72;;;;;;;;;;10479331;28;20056;-85
2021/07/25 18:57:17;;;;;;;3.03;2.35;;;;;;;;;;10438770;28;20048;-85
2021/07/25 19:02:19;;;;;;;3.10;2.70;;;;;;;;;;10461848;28;20559;-85
2021/07/25 19:07:20;;;;;;;3.60;2.88;;;;;;;;;;10461278;28;20025;-85
2021/07/25 19:12:28;;;;;;;3.15;2.67;;;;;;;;;;10469708;28;20095;-84
